sensor_id;sensor_type;location;lat;lon;timestamp;P1;durP1;ratioP1;P2;durP2;ratioP2
64851;SDS011;56050;55.558;-4.644;2024-01-07T00:00:28;12.82;;;4.70;;
64851;SDS011;56050;55.558;-4.644;2024-01-07T00:02:55;18.13;;;3.92;;
64851;SDS011;56050;55.558;-4.644;2024-01-07T00:05:20;10.80;;;5.07;;
64851;SDS011;56050;55.558;-4.644;2024-01-07T00:07:46;9.82;;;3.97;;
64851;SDS011;56050;55.558;-4.644;2024-01-07T00:10:13;8.38;;;4.57;;
64851;SDS011;56050;55.558;-4.644;2024-01-07T00:12:39;7.00;;;4.25;;
64851;SDS011;56050;55.558;-4.644;2024-01-07T00:15:04;9.38;;;5.13;;
64851;SDS011;56050;55.558;-4.644;2024-01-07T00:17:30;9.93;;;8.73;;
64851;SDS011;56050;55.558;-4.644;2024-01-07T00:19:55;9.32;;;4.10;;
64851;SDS011;56050;55.558;-4.644;2024-01-07T00:22:21;9.05;;;4.63;;
64851;SDS011;56050;55.558;-4.644;2024-01-07T00:24:47;8.73;;;3.60;;
64851;SDS011;56050;55.558;-4.644;2024-01-07T00:27:12;8.40;;;4.03;;
64851;SDS011;56050;55.558;-4.644;2024-01-07T00:29:38;8.68;;;3.88;;
64851;SDS011;56050;55.558;-4.644;2024-01-07T00:32:03;6.88;;;3.53;;
64851;SDS011;56050;55.558;-4.644;2024-01-07T00:34:29;8.82;;;4.05;;
64851;SDS011;56050;55.558;-4.644;2024-01-07T00:36:54;7.55;;;4.93;;
64851;SDS011;56050;55.558;-4.644;2024-01-07T00:39:20;7.68;;;4.55;;
64851;SDS011;56050;55.558;-4.644;2024-01-07T00:41:46;9.35;;;4.53;;
64851;SDS011;56050;55.558;-4.644;2024-01-07T00:44:12;5.80;;;3.58;;
64851;SDS011;56050;55.558;-4.644;2024-01-07T00:46:37;5.32;;;2.75;;
64851;SDS011;56050;55.558;-4.644;2024-01-07T00:49:03;7.97;;;3.95;;
64851;SDS011;56050;55.558;-4.644;2024-01-07T00:51:29;9.50;;;4.20;;
64851;SDS011;56050;55.558;-4.644;2024-01-07T00:53:55;8.20;;;3.60;;
64851;SDS011;56050;55.558;-4.644;2024-01-07T00:56:20;8.38;;;4.38;;
64851;SDS011;56050;55.558;-4.644;2024-01-07T00:58:46;15.93;;;6.72;;
64851;SDS011;56050;55.558;-4.644;2024-01-07T01:01:11;8.82;;;4.03;;
64851;SDS011;56050;55.558;-4.644;2024-01-07T01:03:37;10.02;;;3.58;;
64851;SDS011;56050;55.558;-4.644;2024-01-07T01:06:03;5.95;;;3.00;;
64851;SDS011;56050;55.558;-4.644;2024-01-07T01:08:29;7.15;;;3.53;;
64851;SDS011;56050;55.558;-4.644;2024-01-07T01:10:55;4.55;;;2.65;;
64851;SDS011;56050;55.558;-4.644;2024-01-07T01:13:20;7.03;;;3.90;;
64851;SDS011;56050;55.558;-4.644;2024-01-07T01:15:45;8.02;;;2.90;;
64851;SDS011;56050;55.558;-4.644;2024-01-07T01:18:11;9.38;;;4.10;;
64851;SDS011;56050;55.558;-4.644;2024-01-07T01:20:36;7.72;;;2.50;;
64851;SDS011;56050;55.558;-4.644;2024-01-07T01:23:02;9.82;;;3.08;;
64851;SDS011;56050;55.558;-4.644;2024-01-07T01:25:27;5.85;;;4.00;;
64851;SDS011;56050;55.558;-4.644;2024-01-07T01:27:55;9.38;;;4.63;;
64851;SDS011;56050;55.558;-4.644;2024-01-07T01:30:21;8.32;;;3.55;;
64851;SDS011;56050;55.558;-4.644;2024-01-07T01:32:46;8.88;;;4.18;;
64851;SDS011;56050;55.558;-4.644;2024-01-07T01:35:12;9.05;;;3.92;;
64851;SDS011;56050;55.558;-4.644;2024-01-07T01:37:37;8.75;;;2.58;;
64851;SDS011;56050;55.558;-4.644;2024-01-07T01:40:03;11.13;;;3.58;;
64851;SDS011;56050;55.558;-4.644;2024-01-07T01:42:29;5.40;;;2.33;;
64851;SDS011;56050;55.558;-4.644;2024-01-07T01:44:54;5.65;;;3.08;;
64851;SDS011;56050;55.558;-4.644;2024-01-07T01:47:24;7.72;;;4.47;;
64851;SDS011;56050;55.558;-4.644;2024-01-07T01:49:50;8.10;;;2.42;;
64851;SDS011;56050;55.558;-4.644;2024-01-07T01:52:15;8.93;;;3.67;;
64851;SDS011;56050;55.558;-4.644;2024-01-07T01:54:41;8.10;;;2.97;;
64851;SDS011;56050;55.558;-4.644;2024-01-07T01:57:07;6.55;;;3.38;;
64851;SDS011;56050;55.558;-4.644;2024-01-07T01:59:38;5.97;;;3.30;;
64851;SDS011;56050;55.558;-4.644;2024-01-07T02:02:04;6.80;;;3.83;;
64851;SDS011;56050;55.558;-4.644;2024-01-07T02:04:29;7.35;;;3.53;;
64851;SDS011;56050;55.558;-4.644;2024-01-07T02:06:55;8.52;;;5.35;;
64851;SDS011;56050;55.558;-4.644;2024-01-07T02:09:21;9.82;;;5.03;;
64851;SDS011;56050;55.558;-4.644;2024-01-07T02:12:02;9.82;;;3.80;;
64851;SDS011;56050;55.558;-4.644;2024-01-07T02:14:28;9.38;;;3.03;;
64851;SDS011;56050;55.558;-4.644;2024-01-07T02:16:54;9.95;;;5.38;;
64851;SDS011;56050;55.558;-4.644;2024-01-07T02:19:20;8.45;;;3.75;;
64851;SDS011;56050;55.558;-4.644;2024-01-07T02:21:46;4.90;;;2.63;;
64851;SDS011;56050;55.558;-4.644;2024-01-07T02:24:15;5.38;;;2.58;;
64851;SDS011;56050;55.558;-4.644;2024-01-07T02:26:41;8.68;;;2.35;;
64851;SDS011;56050;55.558;-4.644;2024-01-07T02:29:06;8.35;;;3.30;;
64851;SDS011;56050;55.558;-4.644;2024-01-07T02:31:32;6.47;;;2.47;;
64851;SDS011;56050;55.558;-4.644;2024-01-07T02:33:57;7.50;;;5.03;;
64851;SDS011;56050;55.558;-4.644;2024-01-07T02:36:23;8.45;;;2.33;;
64851;SDS011;56050;55.558;-4.644;2024-01-07T02:38:48;5.03;;;3.13;;
64851;SDS011;56050;55.558;-4.644;2024-01-07T02:41:14;4.80;;;2.63;;
64851;SDS011;56050;55.558;-4.644;2024-01-07T02:43:39;2.65;;;1.52;;
64851;SDS011;56050;55.558;-4.644;2024-01-07T02:46:04;3.08;;;1.45;;
64851;SDS011;56050;55.558;-4.644;2024-01-07T02:48:30;4.50;;;1.67;;
64851;SDS011;56050;55.558;-4.644;2024-01-07T02:50:55;6.75;;;2.58;;
64851;SDS011;56050;55.558;-4.644;2024-01-07T02:53:21;2.95;;;1.90;;
64851;SDS011;56050;55.558;-4.644;2024-01-07T02:55:46;2.38;;;1.48;;
64851;SDS011;56050;55.558;-4.644;2024-01-07T02:58:12;8.52;;;2.28;;
64851;SDS011;56050;55.558;-4.644;2024-01-07T03:00:37;5.47;;;2.05;;
64851;SDS011;56050;55.558;-4.644;2024-01-07T03:03:03;5.50;;;1.95;;
64851;SDS011;56050;55.558;-4.644;2024-01-07T03:05:28;5.32;;;2.08;;
64851;SDS011;56050;55.558;-4.644;2024-01-07T03:07:57;2.55;;;1.27;;
64851;SDS011;56050;55.558;-4.644;2024-01-07T03:10:26;4.38;;;1.55;;
64851;SDS011;56050;55.558;-4.644;2024-01-07T03:12:51;2.50;;;0.93;;
64851;SDS011;56050;55.558;-4.644;2024-01-07T03:15:17;3.90;;;2.00;;
64851;SDS011;56050;55.558;-4.644;2024-01-07T03:17:43;2.28;;;1.20;;
64851;SDS011;56050;55.558;-4.644;2024-01-07T03:20:09;5.70;;;2.67;;
64851;SDS011;56050;55.558;-4.644;2024-01-07T03:22:35;3.17;;;2.45;;
64851;SDS011;56050;55.558;-4.644;2024-01-07T03:25:00;3.83;;;2.28;;
64851;SDS011;56050;55.558;-4.644;2024-01-07T03:27:26;4.00;;;1.63;;
64851;SDS011;56050;55.558;-4.644;2024-01-07T03:29:51;3.80;;;1.88;;
64851;SDS011;56050;55.558;-4.644;2024-01-07T03:32:17;4.38;;;2.17;;
64851;SDS011;56050;55.558;-4.644;2024-01-07T03:34:42;4.25;;;2.13;;
64851;SDS011;56050;55.558;-4.644;2024-01-07T03:37:08;2.78;;;1.17;;
64851;SDS011;56050;55.558;-4.644;2024-01-07T03:39:33;2.80;;;2.05;;
64851;SDS011;56050;55.558;-4.644;2024-01-07T03:41:59;3.28;;;1.83;;
64851;SDS011;56050;55.558;-4.644;2024-01-07T03:44:25;2.33;;;1.42;;
64851;SDS011;56050;55.558;-4.644;2024-01-07T03:46:51;3.35;;;1.58;;
64851;SDS011;56050;55.558;-4.644;2024-01-07T03:49:16;3.63;;;1.90;;
64851;SDS011;56050;55.558;-4.644;2024-01-07T03:51:43;2.85;;;1.38;;
64851;SDS011;56050;55.558;-4.644;2024-01-07T03:54:08;7.97;;;2.35;;
64851;SDS011;56050;55.558;-4.644;2024-01-07T03:56:34;3.72;;;1.88;;
64851;SDS011;56050;55.558;-4.644;2024-01-07T03:59:00;4.32;;;2.10;;
64851;SDS011;56050;55.558;-4.644;2024-01-07T04:01:25;9.18;;;3.00;;
64851;SDS011;56050;55.558;-4.644;2024-01-07T04:03:50;3.53;;;1.75;;
64851;SDS011;56050;55.558;-4.644;2024-01-07T04:06:16;4.70;;;2.05;;
64851;SDS011;56050;55.558;-4.644;2024-01-07T04:08:41;4.85;;;2.05;;
64851;SDS011;56050;55.558;-4.644;2024-01-07T04:11:07;7.70;;;1.88;;
64851;SDS011;56050;55.558;-4.644;2024-01-07T04:13:32;5.65;;;2.30;;
64851;SDS011;56050;55.558;-4.644;2024-01-07T04:15:58;2.80;;;2.00;;
64851;SDS011;56050;55.558;-4.644;2024-01-07T04:18:23;3.63;;;2.05;;
64851;SDS011;56050;55.558;-4.644;2024-01-07T04:20:49;4.95;;;2.03;;
64851;SDS011;56050;55.558;-4.644;2024-01-07T04:23:14;3.80;;;2.13;;
64851;SDS011;56050;55.558;-4.644;2024-01-07T04:25:40;4.78;;;2.05;;
64851;SDS011;56050;55.558;-4.644;2024-01-07T04:28:07;4.55;;;1.73;;
64851;SDS011;56050;55.558;-4.644;2024-01-07T04:30:33;4.25;;;3.85;;
64851;SDS011;56050;55.558;-4.644;2024-01-07T04:32:58;4.60;;;2.42;;
64851;SDS011;56050;55.558;-4.644;2024-01-07T04:35:24;7.50;;;2.22;;
64851;SDS011;56050;55.558;-4.644;2024-01-07T04:37:49;5.72;;;1.73;;
64851;SDS011;56050;55.558;-4.644;2024-01-07T04:40:14;5.75;;;2.22;;
64851;SDS011;56050;55.558;-4.644;2024-01-07T04:42:40;4.18;;;1.90;;
64851;SDS011;56050;55.558;-4.644;2024-01-07T04:45:06;4.43;;;2.35;;
64851;SDS011;56050;55.558;-4.644;2024-01-07T04:47:32;3.53;;;1.90;;
64851;SDS011;56050;55.558;-4.644;2024-01-07T04:50:02;4.85;;;1.70;;
64851;SDS011;56050;55.558;-4.644;2024-01-07T04:52:29;3.50;;;2.15;;
64851;SDS011;56050;55.558;-4.644;2024-01-07T04:54:54;12.32;;;2.80;;
64851;SDS011;56050;55.558;-4.644;2024-01-07T04:57:22;2.97;;;1.50;;
64851;SDS011;56050;55.558;-4.644;2024-01-07T04:59:48;8.15;;;4.10;;
64851;SDS011;56050;55.558;-4.644;2024-01-07T05:02:15;5.53;;;2.33;;
64851;SDS011;56050;55.558;-4.644;2024-01-07T05:04:41;3.95;;;1.58;;
64851;SDS011;56050;55.558;-4.644;2024-01-07T05:07:06;4.45;;;1.60;;
64851;SDS011;56050;55.558;-4.644;2024-01-07T05:09:33;3.72;;;1.52;;
64851;SDS011;56050;55.558;-4.644;2024-01-07T05:11:59;3.88;;;2.17;;
64851;SDS011;56050;55.558;-4.644;2024-01-07T05:14:24;5.40;;;1.77;;
64851;SDS011;56050;55.558;-4.644;2024-01-07T05:16:50;4.43;;;1.38;;
64851;SDS011;56050;55.558;-4.644;2024-01-07T05:19:16;6.65;;;2.20;;
64851;SDS011;56050;55.558;-4.644;2024-01-07T05:21:41;4.32;;;2.30;;
64851;SDS011;56050;55.558;-4.644;2024-01-07T05:24:06;3.20;;;1.17;;
64851;SDS011;56050;55.558;-4.644;2024-01-07T05:26:39;2.25;;;1.75;;
64851;SDS011;56050;55.558;-4.644;2024-01-07T05:29:07;2.15;;;1.65;;
64851;SDS011;56050;55.558;-4.644;2024-01-07T05:31:33;2.58;;;0.95;;
64851;SDS011;56050;55.558;-4.644;2024-01-07T05:33:58;8.93;;;1.85;;
64851;SDS011;56050;55.558;-4.644;2024-01-07T05:36:24;3.15;;;1.23;;
64851;SDS011;56050;55.558;-4.644;2024-01-07T05:38:49;7.10;;;1.75;;
64851;SDS011;56050;55.558;-4.644;2024-01-07T05:41:14;1.92;;;1.02;;
64851;SDS011;56050;55.558;-4.644;2024-01-07T05:43:40;2.55;;;1.20;;
64851;SDS011;56050;55.558;-4.644;2024-01-07T05:46:05;2.03;;;1.17;;
64851;SDS011;56050;55.558;-4.644;2024-01-07T05:48:40;1.30;;;0.73;;
64851;SDS011;56050;55.558;-4.644;2024-01-07T05:51:07;2.83;;;1.30;;
64851;SDS011;56050;55.558;-4.644;2024-01-07T05:53:34;2.78;;;1.05;;
64851;SDS011;56050;55.558;-4.644;2024-01-07T05:56:00;4.22;;;3.80;;
64851;SDS011;56050;55.558;-4.644;2024-01-07T05:58:25;2.53;;;1.48;;
64851;SDS011;56050;55.558;-4.644;2024-01-07T06:00:51;3.00;;;1.30;;
64851;SDS011;56050;55.558;-4.644;2024-01-07T06:03:16;2.72;;;0.82;;
64851;SDS011;56050;55.558;-4.644;2024-01-07T06:05:42;3.75;;;1.45;;
64851;SDS011;56050;55.558;-4.644;2024-01-07T06:08:07;1.88;;;1.10;;
64851;SDS011;56050;55.558;-4.644;2024-01-07T06:10:33;2.30;;;1.38;;
64851;SDS011;56050;55.558;-4.644;2024-01-07T06:12:59;1.90;;;1.15;;
64851;SDS011;56050;55.558;-4.644;2024-01-07T06:15:24;4.90;;;1.30;;
64851;SDS011;56050;55.558;-4.644;2024-01-07T06:17:50;5.03;;;1.25;;
64851;SDS011;56050;55.558;-4.644;2024-01-07T06:20:15;5.07;;;1.17;;
64851;SDS011;56050;55.558;-4.644;2024-01-07T06:22:41;1.70;;;0.77;;
64851;SDS011;56050;55.558;-4.644;2024-01-07T06:25:07;2.60;;;0.93;;
64851;SDS011;56050;55.558;-4.644;2024-01-07T06:27:32;1.98;;;1.15;;
64851;SDS011;56050;55.558;-4.644;2024-01-07T06:29:58;2.67;;;1.17;;
64851;SDS011;56050;55.558;-4.644;2024-01-07T06:32:23;3.65;;;3.33;;
64851;SDS011;56050;55.558;-4.644;2024-01-07T06:34:50;8.40;;;2.58;;
64851;SDS011;56050;55.558;-4.644;2024-01-07T06:37:15;2.35;;;1.52;;
64851;SDS011;56050;55.558;-4.644;2024-01-07T06:39:41;1.80;;;1.60;;
64851;SDS011;56050;55.558;-4.644;2024-01-07T06:42:07;2.28;;;0.85;;
64851;SDS011;56050;55.558;-4.644;2024-01-07T06:44:33;2.38;;;1.02;;
64851;SDS011;56050;55.558;-4.644;2024-01-07T06:46:58;2.47;;;1.23;;
64851;SDS011;56050;55.558;-4.644;2024-01-07T06:49:23;2.13;;;1.17;;
64851;SDS011;56050;55.558;-4.644;2024-01-07T06:51:49;3.20;;;1.63;;
64851;SDS011;56050;55.558;-4.644;2024-01-07T06:54:14;2.10;;;1.23;;
64851;SDS011;56050;55.558;-4.644;2024-01-07T06:56:40;4.28;;;1.23;;
64851;SDS011;56050;55.558;-4.644;2024-01-07T06:59:05;2.88;;;1.42;;
64851;SDS011;56050;55.558;-4.644;2024-01-07T07:01:32;3.28;;;1.27;;
64851;SDS011;56050;55.558;-4.644;2024-01-07T07:03:57;3.28;;;1.33;;
64851;SDS011;56050;55.558;-4.644;2024-01-07T07:06:25;5.78;;;2.85;;
64851;SDS011;56050;55.558;-4.644;2024-01-07T07:08:50;1.35;;;0.80;;
64851;SDS011;56050;55.558;-4.644;2024-01-07T07:11:17;2.28;;;1.23;;
64851;SDS011;56050;55.558;-4.644;2024-01-07T07:13:42;3.17;;;0.95;;
64851;SDS011;56050;55.558;-4.644;2024-01-07T07:16:08;1.67;;;1.30;;
64851;SDS011;56050;55.558;-4.644;2024-01-07T07:21:00;1.70;;;0.93;;
64851;SDS011;56050;55.558;-4.644;2024-01-07T07:23:25;3.33;;;1.70;;
64851;SDS011;56050;55.558;-4.644;2024-01-07T07:25:51;4.00;;;1.60;;
64851;SDS011;56050;55.558;-4.644;2024-01-07T07:28:16;4.03;;;1.67;;
64851;SDS011;56050;55.558;-4.644;2024-01-07T07:30:42;2.92;;;1.42;;
64851;SDS011;56050;55.558;-4.644;2024-01-07T07:33:08;3.10;;;2.80;;
64851;SDS011;56050;55.558;-4.644;2024-01-07T07:35:33;3.13;;;0.82;;
64851;SDS011;56050;55.558;-4.644;2024-01-07T07:37:59;2.15;;;1.60;;
64851;SDS011;56050;55.558;-4.644;2024-01-07T07:40:24;2.90;;;1.45;;
64851;SDS011;56050;55.558;-4.644;2024-01-07T07:42:50;2.25;;;1.23;;
64851;SDS011;56050;55.558;-4.644;2024-01-07T07:45:16;2.53;;;1.00;;
64851;SDS011;56050;55.558;-4.644;2024-01-07T07:47:41;1.67;;;0.80;;
64851;SDS011;56050;55.558;-4.644;2024-01-07T07:50:10;3.55;;;1.08;;
64851;SDS011;56050;55.558;-4.644;2024-01-07T07:52:36;2.90;;;2.67;;
64851;SDS011;56050;55.558;-4.644;2024-01-07T07:55:02;2.63;;;1.92;;
64851;SDS011;56050;55.558;-4.644;2024-01-07T07:57:28;1.38;;;0.75;;
64851;SDS011;56050;55.558;-4.644;2024-01-07T07:59:54;2.97;;;1.33;;
64851;SDS011;56050;55.558;-4.644;2024-01-07T08:02:19;6.47;;;2.53;;
64851;SDS011;56050;55.558;-4.644;2024-01-07T08:04:46;1.70;;;0.88;;
64851;SDS011;56050;55.558;-4.644;2024-01-07T08:07:12;1.92;;;1.38;;
64851;SDS011;56050;55.558;-4.644;2024-01-07T08:09:38;2.03;;;1.08;;
64851;SDS011;56050;55.558;-4.644;2024-01-07T08:12:04;3.05;;;1.23;;
64851;SDS011;56050;55.558;-4.644;2024-01-07T08:14:31;2.75;;;1.20;;
64851;SDS011;56050;55.558;-4.644;2024-01-07T08:16:57;1.58;;;0.88;;
64851;SDS011;56050;55.558;-4.644;2024-01-07T08:19:23;3.08;;;1.73;;
64851;SDS011;56050;55.558;-4.644;2024-01-07T08:21:49;3.25;;;1.05;;
64851;SDS011;56050;55.558;-4.644;2024-01-07T08:24:14;3.60;;;1.27;;
64851;SDS011;56050;55.558;-4.644;2024-01-07T08:26:40;2.67;;;1.25;;
64851;SDS011;56050;55.558;-4.644;2024-01-07T08:29:05;3.78;;;1.83;;
64851;SDS011;56050;55.558;-4.644;2024-01-07T08:31:31;2.20;;;1.50;;
64851;SDS011;56050;55.558;-4.644;2024-01-07T08:33:57;2.42;;;1.38;;
64851;SDS011;56050;55.558;-4.644;2024-01-07T08:36:23;2.45;;;0.88;;
64851;SDS011;56050;55.558;-4.644;2024-01-07T08:38:49;3.60;;;1.33;;
64851;SDS011;56050;55.558;-4.644;2024-01-07T08:41:17;5.70;;;1.80;;
64851;SDS011;56050;55.558;-4.644;2024-01-07T08:43:43;2.47;;;1.00;;
64851;SDS011;56050;55.558;-4.644;2024-01-07T08:46:10;4.15;;;1.15;;
64851;SDS011;56050;55.558;-4.644;2024-01-07T08:48:36;4.72;;;1.45;;
64851;SDS011;56050;55.558;-4.644;2024-01-07T08:51:02;2.95;;;1.08;;
64851;SDS011;56050;55.558;-4.644;2024-01-07T08:55:53;4.22;;;1.27;;
64851;SDS011;56050;55.558;-4.644;2024-01-07T08:58:19;2.10;;;1.35;;
64851;SDS011;56050;55.558;-4.644;2024-01-07T09:00:44;2.92;;;1.58;;
64851;SDS011;56050;55.558;-4.644;2024-01-07T09:03:10;4.80;;;1.55;;
64851;SDS011;56050;55.558;-4.644;2024-01-07T09:05:36;4.90;;;1.30;;
64851;SDS011;56050;55.558;-4.644;2024-01-07T09:08:02;4.40;;;1.88;;
64851;SDS011;56050;55.558;-4.644;2024-01-07T09:10:28;3.85;;;2.80;;
64851;SDS011;56050;55.558;-4.644;2024-01-07T09:12:53;2.55;;;1.63;;
64851;SDS011;56050;55.558;-4.644;2024-01-07T09:15:20;2.63;;;1.63;;
64851;SDS011;56050;55.558;-4.644;2024-01-07T09:17:46;3.35;;;1.20;;
64851;SDS011;56050;55.558;-4.644;2024-01-07T09:20:12;5.38;;;1.70;;
64851;SDS011;56050;55.558;-4.644;2024-01-07T09:22:39;5.13;;;1.65;;
64851;SDS011;56050;55.558;-4.644;2024-01-07T09:25:05;3.42;;;2.35;;
64851;SDS011;56050;55.558;-4.644;2024-01-07T09:27:32;4.97;;;1.67;;
64851;SDS011;56050;55.558;-4.644;2024-01-07T09:29:58;5.28;;;2.08;;
64851;SDS011;56050;55.558;-4.644;2024-01-07T09:32:24;2.42;;;1.63;;
64851;SDS011;56050;55.558;-4.644;2024-01-07T09:34:49;2.63;;;1.60;;
64851;SDS011;56050;55.558;-4.644;2024-01-07T09:37:16;3.60;;;1.45;;
64851;SDS011;56050;55.558;-4.644;2024-01-07T09:39:43;4.45;;;2.25;;
64851;SDS011;56050;55.558;-4.644;2024-01-07T09:42:12;6.05;;;1.55;;
64851;SDS011;56050;55.558;-4.644;2024-01-07T09:44:39;3.25;;;1.38;;
64851;SDS011;56050;55.558;-4.644;2024-01-07T09:47:11;1.92;;;1.38;;
64851;SDS011;56050;55.558;-4.644;2024-01-07T09:49:41;2.95;;;1.35;;
64851;SDS011;56050;55.558;-4.644;2024-01-07T09:52:08;2.42;;;1.05;;
64851;SDS011;56050;55.558;-4.644;2024-01-07T09:54:38;6.70;;;1.27;;
64851;SDS011;56050;55.558;-4.644;2024-01-07T09:57:05;2.63;;;1.30;;
64851;SDS011;56050;55.558;-4.644;2024-01-07T09:59:32;3.65;;;1.88;;
64851;SDS011;56050;55.558;-4.644;2024-01-07T10:04:24;3.35;;;1.70;;
64851;SDS011;56050;55.558;-4.644;2024-01-07T10:06:50;3.83;;;1.38;;
64851;SDS011;56050;55.558;-4.644;2024-01-07T10:09:17;1.80;;;1.00;;
64851;SDS011;56050;55.558;-4.644;2024-01-07T10:11:46;2.25;;;1.02;;
64851;SDS011;56050;55.558;-4.644;2024-01-07T10:14:11;5.00;;;1.17;;
64851;SDS011;56050;55.558;-4.644;2024-01-07T10:16:37;5.38;;;2.13;;
64851;SDS011;56050;55.558;-4.644;2024-01-07T10:19:02;3.13;;;1.75;;
64851;SDS011;56050;55.558;-4.644;2024-01-07T10:21:28;1.38;;;1.05;;
64851;SDS011;56050;55.558;-4.644;2024-01-07T10:24:12;1.98;;;1.27;;
64851;SDS011;56050;55.558;-4.644;2024-01-07T10:26:39;4.70;;;1.98;;
64851;SDS011;56050;55.558;-4.644;2024-01-07T10:29:08;2.72;;;2.50;;
64851;SDS011;56050;55.558;-4.644;2024-01-07T10:31:33;3.10;;;1.30;;
64851;SDS011;56050;55.558;-4.644;2024-01-07T10:33:59;1.48;;;0.82;;
64851;SDS011;56050;55.558;-4.644;2024-01-07T10:36:25;4.85;;;1.77;;
64851;SDS011;56050;55.558;-4.644;2024-01-07T10:38:51;2.85;;;1.48;;
64851;SDS011;56050;55.558;-4.644;2024-01-07T10:41:20;3.53;;;1.67;;
64851;SDS011;56050;55.558;-4.644;2024-01-07T10:43:46;3.55;;;1.35;;
64851;SDS011;56050;55.558;-4.644;2024-01-07T10:46:13;3.88;;;1.30;;
64851;SDS011;56050;55.558;-4.644;2024-01-07T10:48:48;2.67;;;1.25;;
64851;SDS011;56050;55.558;-4.644;2024-01-07T10:51:24;2.78;;;1.35;;
64851;SDS011;56050;55.558;-4.644;2024-01-07T10:53:55;6.30;;;1.92;;
64851;SDS011;56050;55.558;-4.644;2024-01-07T10:56:24;5.00;;;1.88;;
64851;SDS011;56050;55.558;-4.644;2024-01-07T10:58:57;3.35;;;1.90;;
64851;SDS011;56050;55.558;-4.644;2024-01-07T11:01:23;5.95;;;1.55;;
64851;SDS011;56050;55.558;-4.644;2024-01-07T11:06:36;3.30;;;1.02;;
64851;SDS011;56050;55.558;-4.644;2024-01-07T11:09:34;4.15;;;3.55;;
64851;SDS011;56050;55.558;-4.644;2024-01-07T11:12:05;7.35;;;1.92;;
64851;SDS011;56050;55.558;-4.644;2024-01-07T11:14:34;3.47;;;1.50;;
64851;SDS011;56050;55.558;-4.644;2024-01-07T11:17:05;2.42;;;1.80;;
64851;SDS011;56050;55.558;-4.644;2024-01-07T11:19:31;6.70;;;1.38;;
64851;SDS011;56050;55.558;-4.644;2024-01-07T11:24:50;3.33;;;1.45;;
64851;SDS011;56050;55.558;-4.644;2024-01-07T11:27:16;4.45;;;2.00;;
64851;SDS011;56050;55.558;-4.644;2024-01-07T11:29:42;2.72;;;1.92;;
64851;SDS011;56050;55.558;-4.644;2024-01-07T11:32:08;5.05;;;2.10;;
64851;SDS011;56050;55.558;-4.644;2024-01-07T11:34:38;3.50;;;1.52;;
64851;SDS011;56050;55.558;-4.644;2024-01-07T11:37:11;10.25;;;2.78;;
64851;SDS011;56050;55.558;-4.644;2024-01-07T11:39:38;7.60;;;1.63;;
64851;SDS011;56050;55.558;-4.644;2024-01-07T11:42:08;4.40;;;1.92;;
64851;SDS011;56050;55.558;-4.644;2024-01-07T11:44:34;4.05;;;2.30;;
64851;SDS011;56050;55.558;-4.644;2024-01-07T11:47:02;5.28;;;1.67;;
64851;SDS011;56050;55.558;-4.644;2024-01-07T11:51:54;3.80;;;2.58;;
64851;SDS011;56050;55.558;-4.644;2024-01-07T11:54:21;3.25;;;1.88;;
64851;SDS011;56050;55.558;-4.644;2024-01-07T11:56:47;7.20;;;1.88;;
64851;SDS011;56050;55.558;-4.644;2024-01-07T11:59:12;7.43;;;2.63;;
64851;SDS011;56050;55.558;-4.644;2024-01-07T12:01:38;8.27;;;3.25;;
64851;SDS011;56050;55.558;-4.644;2024-01-07T12:04:03;4.60;;;2.20;;
64851;SDS011;56050;55.558;-4.644;2024-01-07T12:06:29;7.88;;;2.00;;
64851;SDS011;56050;55.558;-4.644;2024-01-07T12:08:55;6.07;;;4.47;;
64851;SDS011;56050;55.558;-4.644;2024-01-07T12:11:20;4.90;;;2.33;;
64851;SDS011;56050;55.558;-4.644;2024-01-07T12:13:47;10.13;;;2.30;;
64851;SDS011;56050;55.558;-4.644;2024-01-07T12:16:16;4.13;;;2.30;;
64851;SDS011;56050;55.558;-4.644;2024-01-07T12:18:42;4.95;;;2.38;;
64851;SDS011;56050;55.558;-4.644;2024-01-07T12:21:07;5.57;;;2.67;;
64851;SDS011;56050;55.558;-4.644;2024-01-07T12:23:36;5.70;;;2.88;;
64851;SDS011;56050;55.558;-4.644;2024-01-07T12:26:08;4.25;;;2.13;;
64851;SDS011;56050;55.558;-4.644;2024-01-07T12:28:40;5.22;;;2.38;;
64851;SDS011;56050;55.558;-4.644;2024-01-07T12:31:06;6.60;;;2.45;;
64851;SDS011;56050;55.558;-4.644;2024-01-07T12:33:33;8.77;;;2.42;;
64851;SDS011;56050;55.558;-4.644;2024-01-07T12:35:59;4.75;;;2.53;;
64851;SDS011;56050;55.558;-4.644;2024-01-07T12:38:25;6.00;;;2.97;;
64851;SDS011;56050;55.558;-4.644;2024-01-07T12:40:54;5.55;;;3.08;;
64851;SDS011;56050;55.558;-4.644;2024-01-07T12:43:20;3.42;;;1.60;;
64851;SDS011;56050;55.558;-4.644;2024-01-07T12:45:47;5.60;;;3.85;;
64851;SDS011;56050;55.558;-4.644;2024-01-07T12:48:13;3.85;;;1.67;;
64851;SDS011;56050;55.558;-4.644;2024-01-07T12:50:38;4.50;;;1.65;;
64851;SDS011;56050;55.558;-4.644;2024-01-07T12:53:04;3.35;;;2.20;;
64851;SDS011;56050;55.558;-4.644;2024-01-07T12:55:30;9.57;;;3.63;;
64851;SDS011;56050;55.558;-4.644;2024-01-07T12:57:56;4.03;;;3.47;;
64851;SDS011;56050;55.558;-4.644;2024-01-07T13:00:23;2.13;;;1.08;;
64851;SDS011;56050;55.558;-4.644;2024-01-07T13:02:50;5.78;;;1.55;;
64851;SDS011;56050;55.558;-4.644;2024-01-07T13:05:16;2.95;;;1.88;;
64851;SDS011;56050;55.558;-4.644;2024-01-07T13:07:42;5.05;;;1.40;;
64851;SDS011;56050;55.558;-4.644;2024-01-07T13:10:08;4.97;;;1.80;;
64851;SDS011;56050;55.558;-4.644;2024-01-07T13:12:34;5.57;;;1.23;;
64851;SDS011;56050;55.558;-4.644;2024-01-07T13:15:00;5.75;;;3.65;;
64851;SDS011;56050;55.558;-4.644;2024-01-07T13:17:26;4.85;;;2.08;;
64851;SDS011;56050;55.558;-4.644;2024-01-07T13:19:51;5.03;;;1.23;;
64851;SDS011;56050;55.558;-4.644;2024-01-07T13:22:18;2.92;;;1.67;;
64851;SDS011;56050;55.558;-4.644;2024-01-07T13:24:43;4.05;;;1.30;;
64851;SDS011;56050;55.558;-4.644;2024-01-07T13:27:09;2.03;;;1.70;;
64851;SDS011;56050;55.558;-4.644;2024-01-07T13:29:34;2.45;;;1.27;;
64851;SDS011;56050;55.558;-4.644;2024-01-07T13:32:00;6.50;;;2.10;;
64851;SDS011;56050;55.558;-4.644;2024-01-07T13:34:25;3.67;;;1.52;;
64851;SDS011;56050;55.558;-4.644;2024-01-07T13:36:51;3.92;;;2.03;;
64851;SDS011;56050;55.558;-4.644;2024-01-07T13:39:17;5.57;;;1.95;;
64851;SDS011;56050;55.558;-4.644;2024-01-07T13:41:42;6.07;;;2.00;;
64851;SDS011;56050;55.558;-4.644;2024-01-07T13:44:09;6.97;;;2.88;;
64851;SDS011;56050;55.558;-4.644;2024-01-07T13:46:43;8.50;;;2.88;;
64851;SDS011;56050;55.558;-4.644;2024-01-07T13:49:10;9.02;;;3.60;;
64851;SDS011;56050;55.558;-4.644;2024-01-07T13:54:02;5.40;;;3.28;;
64851;SDS011;56050;55.558;-4.644;2024-01-07T13:56:28;7.63;;;3.78;;
64851;SDS011;56050;55.558;-4.644;2024-01-07T14:01:21;6.85;;;3.13;;
64851;SDS011;56050;55.558;-4.644;2024-01-07T14:03:46;6.35;;;3.13;;
64851;SDS011;56050;55.558;-4.644;2024-01-07T14:06:12;6.32;;;3.33;;
64851;SDS011;56050;55.558;-4.644;2024-01-07T14:08:38;7.70;;;3.42;;
64851;SDS011;56050;55.558;-4.644;2024-01-07T14:11:03;10.30;;;4.07;;
64851;SDS011;56050;55.558;-4.644;2024-01-07T14:13:32;13.30;;;3.78;;
64851;SDS011;56050;55.558;-4.644;2024-01-07T14:15:57;10.95;;;3.30;;
64851;SDS011;56050;55.558;-4.644;2024-01-07T14:18:23;8.27;;;3.65;;
64851;SDS011;56050;55.558;-4.644;2024-01-07T14:20:49;6.18;;;2.67;;
64851;SDS011;56050;55.558;-4.644;2024-01-07T14:23:14;8.52;;;3.75;;
64851;SDS011;56050;55.558;-4.644;2024-01-07T14:25:39;7.88;;;3.03;;
64851;SDS011;56050;55.558;-4.644;2024-01-07T14:28:08;5.00;;;2.30;;
64851;SDS011;56050;55.558;-4.644;2024-01-07T14:30:33;4.78;;;2.38;;
64851;SDS011;56050;55.558;-4.644;2024-01-07T14:32:59;7.47;;;3.22;;
64851;SDS011;56050;55.558;-4.644;2024-01-07T14:35:24;5.85;;;2.67;;
64851;SDS011;56050;55.558;-4.644;2024-01-07T14:37:51;5.82;;;1.77;;
64851;SDS011;56050;55.558;-4.644;2024-01-07T14:40:20;6.70;;;2.35;;
64851;SDS011;56050;55.558;-4.644;2024-01-07T14:42:45;4.00;;;1.90;;
64851;SDS011;56050;55.558;-4.644;2024-01-07T14:45:11;6.60;;;2.65;;
64851;SDS011;56050;55.558;-4.644;2024-01-07T14:47:37;5.20;;;2.00;;